Sadler, Texas
Current Conditions -  °F | °C
As of 10:35 AM on Saturday 25 Oct 2014 (Local Time) from KGYI Reporting Station
Clear Clear  
Wind Chill: 74°   Ceiling: Unl
Heat Index: 74°   Visibility: 10mi
Dew Point: 63°   Wind: 9mph
Humidity: 68%   Direction: 220°SW
Pressure: 30.15"   Gusts: NA
Location:  33.68°N, 96.85°W
Report Text: KGYI 251535Z AUTO 22008KT 10SM CLR 24/17 A3015 RMK AO2 T02350172
Loading
Personal Weather Stations






























Interactive Weather Map
Tropical Storm Tracking
New forecast layout! Learn more

10-Day Weather Forecast

Advertisements
Track Severe Weather on mobile